Time;durP1;ratioP1;P1;durP2;ratioP2;P2;SDS_P1;SDS_P2;PMS_P1;PMS_P2;Temp;Humidity;BMP_temperature;BMP_pressure;BME280_temperature;BME280_humidity;BME280_pressure;Samples;Min_cycle;Max_cycle;Signal;HPM_P1;HPM_P2
2021/09/09 00:01:51;;;;;;;5.95;3.08;;;;;;;18.74;88.84;100844.75;4977248;28;20035;-69
2021/09/09 00:04:16;;;;;;;5.70;3.50;;;;;;;18.80;88.05;100837.66;4988242;28;20048;-69
2021/09/09 00:06:42;;;;;;;7.15;3.30;;;;;;;18.74;88.18;100836.56;4991036;28;20108;-69
2021/09/09 00:09:08;;;;;;;7.18;3.28;;;;;;;18.79;88.37;100830.69;4989122;28;20412;-69
2021/09/09 00:11:35;;;;;;;8.68;3.90;;;;;;;18.73;88.50;100827.63;4959389;28;20042;-69
2021/09/09 00:14:01;;;;;;;6.55;3.83;;;;;;;18.74;88.79;100833.84;4973888;28;20050;-70
2021/09/09 00:16:29;;;;;;;5.43;3.40;;;;;;;18.70;88.64;100828.41;4970054;28;20038;-69
2021/09/09 00:18:58;;;;;;;7.32;3.50;;;;;;;18.69;88.93;100829.59;4965862;28;20053;-69
2021/09/09 00:21:25;;;;;;;8.02;3.92;;;;;;;18.71;89.17;100821.00;4987432;28;20088;-69
2021/09/09 00:23:50;;;;;;;6.25;3.38;;;;;;;18.63;89.75;100827.72;4982822;28;20046;-69
2021/09/09 00:26:16;;;;;;;6.10;3.17;;;;;;;18.64;89.27;100816.38;4982943;28;20039;-69
2021/09/09 00:28:42;;;;;;;7.50;3.70;;;;;;;18.62;89.42;100812.53;4982527;28;20106;-69
2021/09/09 00:31:09;;;;;;;7.80;3.60;;;;;;;18.59;89.63;100807.88;4986466;28;20484;-69
2021/09/09 00:33:35;;;;;;;5.88;3.50;;;;;;;18.56;89.88;100811.41;4990660;28;20096;-69
2021/09/09 00:36:00;;;;;;;5.93;3.38;;;;;;;18.52;90.42;100807.94;4986326;28;20034;-69
2021/09/09 00:38:26;;;;;;;6.97;3.50;;;;;;;18.55;89.81;100809.84;4987222;28;20030;-70
2021/09/09 00:40:52;;;;;;;6.88;3.53;;;;;;;18.55;89.97;100804.41;4984362;28;20039;-70
2021/09/09 00:43:18;;;;;;;9.50;3.63;;;;;;;18.52;90.10;100802.50;4982188;28;20391;-68
2021/09/09 00:45:52;;;;;;;7.65;3.42;;;;;;;18.46;90.29;100806.84;4984674;28;20035;-68
2021/09/09 00:48:17;;;;;;;8.43;3.95;;;;;;;18.38;90.67;100805.31;4974737;28;20041;-69
2021/09/09 00:50:43;;;;;;;7.43;4.05;;;;;;;18.33;91.03;100803.78;4982069;28;20034;-70
2021/09/09 00:53:08;;;;;;;7.95;3.90;;;;;;;18.37;90.73;100801.06;4994275;28;20049;-69
2021/09/09 00:55:34;;;;;;;6.68;3.75;;;;;;;18.39;90.77;100809.59;4986095;28;20045;-69
2021/09/09 00:57:59;;;;;;;6.47;3.58;;;;;;;18.40;90.47;100808.41;4993834;28;20497;-69
2021/09/09 01:00:25;;;;;;;8.50;4.05;;;;;;;18.32;91.36;100798.75;4990705;28;20038;-68
2021/09/09 01:02:50;;;;;;;7.53;3.65;;;;;;;18.32;91.54;100801.47;4994183;28;20034;-69
2021/09/09 01:05:16;;;;;;;7.18;3.83;;;;;;;18.23;91.56;100796.50;4992649;28;20042;-69
2021/09/09 01:07:42;;;;;;;8.82;4.10;;;;;;;18.20;92.27;100801.97;4988862;28;20034;-69
2021/09/09 01:10:08;;;;;;;7.43;3.70;;;;;;;18.30;91.73;100788.25;4986860;28;20446;-70
2021/09/09 01:12:34;;;;;;;7.60;3.47;;;;;;;18.31;91.55;100799.94;4992628;28;20058;-69
2021/09/09 01:14:59;;;;;;;7.65;4.05;;;;;;;18.30;91.66;100784.75;4994047;28;20427;-69
2021/09/09 01:17:25;;;;;;;7.93;3.95;;;;;;;18.27;91.49;100791.78;4986957;28;20535;-69
2021/09/09 01:19:51;;;;;;;7.82;4.05;;;;;;;18.22;91.83;100791.44;4990433;28;20034;-70
2021/09/09 01:22:16;;;;;;;7.18;3.70;;;;;;;18.22;91.72;100792.22;4984159;28;20121;-68
2021/09/09 01:24:41;;;;;;;8.50;4.03;;;;;;;18.18;91.62;100788.75;4990071;28;20042;-69
2021/09/09 01:27:08;;;;;;;8.95;4.05;;;;;;;18.22;91.66;100780.53;4993555;28;20611;-68
2021/09/09 01:29:39;;;;;;;9.07;3.90;;;;;;;18.22;92.29;100788.69;4992943;28;20431;-68
2021/09/09 01:32:06;;;;;;;9.43;4.30;;;;;;;18.12;92.23;100784.13;4982794;28;20125;-70
2021/09/09 01:34:32;;;;;;;8.00;4.40;;;;;;;18.07;92.64;100790.78;4990399;28;20543;-68
2021/09/09 01:36:57;;;;;;;8.27;3.97;;;;;;;18.09;92.33;100790.38;4993362;28;20121;-69
2021/09/09 01:39:24;;;;;;;6.47;3.97;;;;;;;18.09;92.62;100787.66;4992063;28;20042;-69
2021/09/09 01:41:51;;;;;;;9.60;4.03;;;;;;;18.09;92.63;100787.66;4988309;28;20088;-69
2021/09/09 01:44:17;;;;;;;7.72;3.80;;;;;;;18.07;92.50;100787.28;4987249;28;20062;-70
2021/09/09 01:46:42;;;;;;;9.82;4.28;;;;;;;18.02;92.74;100788.50;4988085;28;20068;-69
2021/09/09 01:49:08;;;;;;;8.00;3.85;;;;;;;18.00;92.80;100783.44;4991661;28;20103;-68
2021/09/09 01:51:34;;;;;;;10.38;4.38;;;;;;;17.95;92.97;100783.88;4992051;28;20030;-68
2021/09/09 01:54:00;;;;;;;8.43;3.95;;;;;;;17.93;93.21;100775.31;4984915;28;20083;-69
2021/09/09 01:56:26;;;;;;;8.75;3.75;;;;;;;17.87;93.36;100781.59;4990137;28;20030;-69
2021/09/09 01:58:51;;;;;;;8.88;4.07;;;;;;;17.84;93.51;100783.19;4989933;28;20026;-69
2021/09/09 02:01:18;;;;;;;10.88;4.35;;;;;;;17.90;93.31;100780.81;4990121;28;20096;-68
2021/09/09 02:03:43;;;;;;;7.80;4.05;;;;;;;17.86;93.63;100777.31;4991975;28;20030;-69
2021/09/09 02:06:10;;;;;;;9.82;4.38;;;;;;;17.82;93.83;100776.56;4989969;28;20088;-68
2021/09/09 02:08:35;;;;;;;10.13;4.43;;;;;;;17.80;93.68;100768.81;4987097;28;20082;-69
2021/09/09 02:11:01;;;;;;;8.60;3.97;;;;;;;17.74;93.82;100767.69;4971330;28;20455;-68
2021/09/09 02:13:26;;;;;;;10.55;4.80;;;;;;;17.80;93.81;100765.28;4978027;28;20042;-69
2021/09/09 02:15:51;;;;;;;8.57;4.40;;;;;;;17.79;94.02;100772.69;4982748;28;20034;-69
2021/09/09 02:18:17;;;;;;;9.55;4.63;;;;;;;17.77;94.16;100760.63;4987492;28;20076;-68
2021/09/09 02:20:42;;;;;;;7.45;4.05;;;;;;;17.69;94.51;100767.34;4983014;28;20034;-69
2021/09/09 02:23:08;;;;;;;9.57;4.32;;;;;;;17.70;94.33;100771.59;4981775;28;20046;-69
2021/09/09 02:25:33;;;;;;;8.73;4.28;;;;;;;17.72;93.98;100770.03;4994345;28;20042;-69
2021/09/09 02:27:59;;;;;;;8.15;4.10;;;;;;;17.68;94.32;100769.28;4990587;28;20034;-69
2021/09/09 02:30:26;;;;;;;8.85;4.40;;;;;;;17.70;94.65;100758.75;4992248;28;20624;-69
2021/09/09 02:32:55;;;;;;;11.68;5.07;;;;;;;17.66;94.50;100760.72;4972698;28;20499;-69
2021/09/09 02:35:20;;;;;;;8.38;4.32;;;;;;;17.61;94.43;100755.72;4993238;28;20484;-69
2021/09/09 02:37:46;;;;;;;6.60;4.05;;;;;;;17.63;94.79;100753.38;4989294;28;20044;-69
2021/09/09 02:40:12;;;;;;;9.20;4.35;;;;;;;17.59;95.17;100749.09;4992960;28;20073;-69
2021/09/09 02:42:39;;;;;;;11.90;4.43;;;;;;;17.58;94.71;100745.59;4984371;28;20030;-68
2021/09/09 02:45:05;;;;;;;9.80;4.90;;;;;;;17.58;94.47;100751.03;4974059;28;20070;-69
2021/09/09 02:47:30;;;;;;;9.45;4.53;;;;;;;17.53;94.93;100740.59;4992930;28;20041;-68
2021/09/09 02:49:56;;;;;;;9.07;4.32;;;;;;;17.43;95.26;100738.66;4973796;28;20441;-69
2021/09/09 02:52:21;;;;;;;9.48;4.63;;;;;;;17.48;95.14;100743.72;4980866;28;20039;-69
2021/09/09 02:54:47;;;;;;;10.07;4.55;;;;;;;17.48;95.42;100738.25;4973471;28;20594;-69
2021/09/09 02:57:12;;;;;;;9.35;4.65;;;;;;;17.45;95.02;100733.59;4992771;28;20117;-68
2021/09/09 02:59:38;;;;;;;9.68;4.90;;;;;;;17.46;95.45;100726.97;4983170;28;20483;-69
2021/09/09 03:02:03;;;;;;;7.40;4.60;;;;;;;17.47;95.54;100735.91;4984261;28;20442;-68
2021/09/09 03:04:30;;;;;;;9.05;4.53;;;;;;;17.49;95.32;100722.72;4988047;28;20038;-69
2021/09/09 03:06:56;;;;;;;8.68;4.93;;;;;;;17.44;95.37;100729.31;4974874;28;20042;-68
2021/09/09 03:09:21;;;;;;;8.57;4.70;;;;;;;17.46;95.68;100718.03;4992481;28;20109;-68
2021/09/09 03:11:47;;;;;;;12.88;4.82;;;;;;;17.38;95.35;100711.84;4984654;28;20123;-68
2021/09/09 03:14:12;;;;;;;11.25;5.25;;;;;;;17.40;95.29;100714.19;4989904;28;20093;-69
2021/09/09 03:16:38;;;;;;;10.48;4.88;;;;;;;17.41;95.53;100710.28;4991014;28;20049;-69
2021/09/09 03:19:03;;;;;;;13.15;4.72;;;;;;;17.38;95.58;100709.13;4991776;28;20065;-68
2021/09/09 03:21:29;;;;;;;11.23;5.63;;;;;;;17.38;95.54;100711.84;4979637;28;20033;-68
2021/09/09 03:23:54;;;;;;;11.40;5.00;;;;;;;17.35;95.97;100703.72;4973287;28;20046;-69
2021/09/09 03:26:20;;;;;;;13.98;5.35;;;;;;;17.32;95.97;100702.56;4986088;28;20038;-69
2021/09/09 03:28:45;;;;;;;9.23;4.90;;;;;;;17.34;95.80;100700.22;4966228;28;20030;-69
2021/09/09 03:31:11;;;;;;;12.02;5.30;;;;;;;17.29;96.26;100695.19;4975763;28;20165;-68
2021/09/09 03:33:36;;;;;;;12.07;5.15;;;;;;;17.31;95.68;100697.50;4982535;28;20056;-69
2021/09/09 03:36:02;;;;;;;8.13;4.95;;;;;;;17.27;95.75;100683.91;4982363;28;20033;-69
2021/09/09 03:38:28;;;;;;;9.55;5.40;;;;;;;17.26;96.13;100678.88;4990091;28;20479;-69
2021/09/09 03:40:53;;;;;;;10.55;5.15;;;;;;;17.19;96.04;100687.09;4983410;28;20082;-68
2021/09/09 03:43:19;;;;;;;9.60;5.10;;;;;;;17.15;96.21;100681.66;4981373;28;20403;-69
2021/09/09 03:45:44;;;;;;;10.00;5.47;;;;;;;17.15;96.44;100696.06;4987573;28;20114;-69
2021/09/09 03:48:10;;;;;;;8.30;4.78;;;;;;;17.13;96.42;100690.22;4970834;28;20427;-69
2021/09/09 03:50:36;;;;;;;9.38;5.68;;;;;;;17.17;96.25;100684.75;4982218;28;20386;-69
2021/09/09 03:53:02;;;;;;;11.07;4.90;;;;;;;17.14;96.77;100675.47;4970266;28;20129;-68
2021/09/09 03:55:27;;;;;;;10.68;5.78;;;;;;;17.13;96.31;100679.34;4984549;28;20102;-69
2021/09/09 03:57:53;;;;;;;10.65;5.63;;;;;;;17.09;96.50;100680.56;4975126;28;20110;-69
2021/09/09 04:00:18;;;;;;;12.98;5.50;;;;;;;17.07;96.97;100678.22;4970351;28;20076;-69
2021/09/09 04:02:44;;;;;;;12.30;5.72;;;;;;;17.03;97.22;100668.53;4971601;28;20567;-68
2021/09/09 04:05:10;;;;;;;11.27;5.30;;;;;;;17.05;96.78;100668.91;4981873;28;20046;-69
2021/09/09 04:07:35;;;;;;;12.55;6.18;;;;;;;17.02;97.30;100672.41;4978069;28;20117;-68
2021/09/09 04:10:01;;;;;;;10.93;5.70;;;;;;;17.00;96.97;100669.31;4977550;28;20054;-69
2021/09/09 04:12:26;;;;;;;11.02;5.60;;;;;;;17.00;97.30;100666.59;4982913;28;20899;-68
2021/09/09 04:14:52;;;;;;;12.07;5.70;;;;;;;16.98;97.23;100663.50;4969165;28;20716;-69
2021/09/09 04:17:17;;;;;;;10.70;5.57;;;;;;;16.95;97.35;100672.47;4975687;28;20514;-68
2021/09/09 04:19:43;;;;;;;15.55;5.43;;;;;;;16.95;96.91;100665.09;4963273;28;20088;-70
2021/09/09 04:22:09;;;;;;;11.02;5.97;;;;;;;16.86;97.87;100656.56;4984521;28;20110;-68
2021/09/09 04:24:36;;;;;;;11.80;5.55;;;;;;;16.87;97.62;100663.56;4956972;28;20026;-69
2021/09/09 04:27:02;;;;;;;10.90;5.88;;;;;;;16.85;98.04;100656.97;4981592;28;20058;-69
2021/09/09 04:29:28;;;;;;;10.45;5.90;;;;;;;16.80;98.31;100651.94;4989250;28;20077;-68
2021/09/09 04:31:53;;;;;;;11.13;5.43;;;;;;;16.83;98.10;100648.41;4986301;28;20468;-68
2021/09/09 04:34:19;;;;;;;12.55;5.85;;;;;;;16.81;98.31;100645.31;4987777;28;20042;-68
2021/09/09 04:36:44;;;;;;;13.13;5.82;;;;;;;16.74;98.29;100650.81;4960866;28;20022;-69
2021/09/09 04:39:10;;;;;;;11.77;6.20;;;;;;;16.69;98.33;100648.47;4980180;28;20129;-69
2021/09/09 04:41:37;;;;;;;13.57;6.18;;;;;;;16.71;98.41;100651.59;4981630;28;20030;-68
2021/09/09 04:44:04;;;;;;;11.13;5.72;;;;;;;16.75;98.34;100649.63;4972026;28;20030;-69
2021/09/09 04:46:30;;;;;;;12.27;6.10;;;;;;;16.73;98.16;100635.66;4988837;28;20473;-70
2021/09/09 04:48:55;;;;;;;14.60;6.25;;;;;;;16.69;98.50;100638.38;4976673;28;20038;-69
2021/09/09 04:51:21;;;;;;;11.70;5.53;;;;;;;16.62;98.40;100640.38;4980291;28;20384;-68
2021/09/09 04:53:46;;;;;;;12.70;5.78;;;;;;;16.63;98.54;100639.19;4981977;28;20117;-69
2021/09/09 04:56:12;;;;;;;13.45;6.22;;;;;;;16.61;98.74;100646.97;4984645;28;20042;-68
2021/09/09 04:58:37;;;;;;;12.77;5.53;;;;;;;16.60;98.78;100640.00;4987402;28;20500;-74
2021/09/09 05:01:03;;;;;;;11.15;5.95;;;;;;;16.59;98.78;100641.94;4983293;28;20042;-71
2021/09/09 05:03:28;;;;;;;11.48;5.47;;;;;;;16.62;98.81;100634.94;4978189;28;20035;-69
2021/09/09 05:05:54;;;;;;;11.55;5.85;;;;;;;16.62;98.98;100638.44;4986743;28;20118;-68
2021/09/09 05:08:19;;;;;;;13.52;6.35;;;;;;;16.62;98.98;100633.00;4983157;28;20034;-69
2021/09/09 05:10:45;;;;;;;10.10;5.82;;;;;;;16.65;98.81;100632.19;4983268;28;20066;-71
2021/09/09 05:13:10;;;;;;;14.52;6.60;;;;;;;16.66;99.37;100627.53;4979844;28;20070;-70
2021/09/09 05:15:36;;;;;;;12.38;6.15;;;;;;;16.61;99.27;100636.09;4987925;28;20037;-69
2021/09/09 05:18:01;;;;;;;9.50;5.38;;;;;;;16.62;99.79;100633.00;4985026;28;20117;-71
2021/09/09 05:20:27;;;;;;;12.57;6.05;;;;;;;16.70;99.47;100629.06;4983079;28;20392;-68
2021/09/09 05:22:52;;;;;;;10.77;5.75;;;;;;;16.71;99.05;100627.88;4985788;28;20045;-68
2021/09/09 05:25:38;;;;;;;11.25;5.88;;;;;;;16.70;99.11;100633.72;4985801;28;20039;-70
2021/09/09 05:28:03;;;;;;;14.13;6.35;;;;;;;16.71;99.13;100629.81;4913056;29;20063;-70
2021/09/09 05:30:29;;;;;;;10.38;5.72;;;;;;;16.71;99.15;100632.53;4904875;29;20845;-70
2021/09/09 05:32:54;;;;;;;10.70;5.75;;;;;;;16.73;99.36;100631.00;4906908;29;20153;-69
2021/09/09 05:35:20;;;;;;;13.88;5.88;;;;;;;16.74;99.20;100627.09;4908027;29;20039;-69
2021/09/09 05:37:45;;;;;;;13.30;6.20;;;;;;;16.75;100.00;100625.16;4910597;29;20044;-68
2021/09/09 05:40:11;;;;;;;10.88;6.05;;;;;;;16.74;100.00;100634.50;4911585;29;20044;-68
2021/09/09 05:42:37;;;;;;;14.05;6.53;;;;;;;16.80;99.89;100630.19;4907215;29;20074;-68
2021/09/09 05:45:03;;;;;;;13.05;6.03;;;;;;;16.77;100.00;100630.97;4912442;29;20072;-70
2021/09/09 05:47:29;;;;;;;11.52;6.43;;;;;;;16.78;100.00;100629.81;4912806;29;20046;-69
2021/09/09 05:49:55;;;;;;;12.20;6.53;;;;;;;16.84;100.00;100634.41;4897944;29;20036;-68
2021/09/09 05:52:21;;;;;;;12.15;6.40;;;;;;;16.86;100.00;100625.88;4912773;29;20051;-68
2021/09/09 05:54:47;;;;;;;11.05;6.28;;;;;;;16.87;100.00;100628.19;4913365;29;20043;-70
2021/09/09 05:57:12;;;;;;;12.50;6.32;;;;;;;16.89;100.00;100619.63;4910652;29;20087;-69
2021/09/09 05:59:38;;;;;;;13.27;6.18;;;;;;;16.99;100.00;100626.97;4912189;29;20044;-68
2021/09/09 06:02:12;;;;;;;11.43;5.95;;;;;;;17.02;100.00;100618.00;4919743;29;20070;-69
2021/09/09 06:04:38;;;;;;;13.27;6.68;;;;;;;17.02;100.00;100620.72;4936203;28;20055;-69
2021/09/09 06:07:03;;;;;;;12.63;6.32;;;;;;;17.06;100.00;100613.28;4945990;28;20044;-69
2021/09/09 06:09:29;;;;;;;13.98;6.18;;;;;;;17.05;100.00;100607.06;4977855;28;20027;-68
2021/09/09 06:11:54;;;;;;;12.93;6.43;;;;;;;17.07;100.00;100609.41;4970173;28;20141;-68
2021/09/09 06:14:20;;;;;;;14.18;6.63;;;;;;;17.13;100.00;100607.78;4975698;28;20039;-68
2021/09/09 06:16:45;;;;;;;16.98;6.22;;;;;;;17.15;100.00;100605.44;4973919;28;20105;-68
2021/09/09 06:19:11;;;;;;;12.85;6.22;;;;;;;17.17;100.00;100605.06;4984261;28;20039;-68
2021/09/09 06:21:36;;;;;;;14.85;7.07;;;;;;;17.24;100.00;100608.50;4980903;28;20089;-68
2021/09/09 06:24:05;;;;;;;15.35;6.85;;;;;;;17.24;100.00;100602.28;4969881;28;20039;-68
2021/09/09 06:26:30;;;;;;;12.82;6.50;;;;;;;17.28;100.00;100611.19;4987707;28;20395;-69
2021/09/09 06:28:56;;;;;;;14.73;6.18;;;;;;;17.31;100.00;100597.56;4986367;28;20018;-69
2021/09/09 06:31:21;;;;;;;11.60;5.78;;;;;;;17.32;100.00;100610.00;4985796;28;20041;-69
2021/09/09 06:33:47;;;;;;;14.25;6.43;;;;;;;17.39;100.00;100606.44;4973314;28;20034;-69
2021/09/09 06:36:12;;;;;;;12.90;6.60;;;;;;;17.41;100.00;100615.75;4985034;28;20394;-71
2021/09/09 06:38:38;;;;;;;12.13;6.35;;;;;;;17.56;100.00;100606.31;4992419;28;20050;-69
2021/09/09 06:41:04;;;;;;;15.43;6.80;;;;;;;17.80;100.00;100610.00;4990133;28;20042;-69
2021/09/09 06:43:29;;;;;;;13.75;6.43;;;;;;;18.01;100.00;100607.03;4989706;28;20109;-69
2021/09/09 06:45:55;;;;;;;13.65;6.75;;;;;;;18.17;99.91;100611.94;4980756;28;20557;-70
2021/09/09 06:48:20;;;;;;;11.30;6.28;;;;;;;18.43;98.38;100612.03;4991584;28;20026;-68
2021/09/09 06:50:45;;;;;;;11.48;5.80;;;;;;;18.63;98.05;100609.44;4974486;28;20034;-68
2021/09/09 06:53:11;;;;;;;12.23;6.47;;;;;;;18.81;97.17;100618.91;4988421;28;20030;-70
2021/09/09 06:55:36;;;;;;;11.80;5.80;;;;;;;18.93;96.28;100615.63;4988852;28;20088;-68
2021/09/09 06:58:03;;;;;;;10.98;5.60;;;;;;;19.11;95.61;100617.31;4990324;28;20030;-69
2021/09/09 07:00:28;;;;;;;12.32;6.18;;;;;;;19.22;95.28;100615.22;4991990;28;20569;-69
2021/09/09 07:02:53;;;;;;;10.95;5.80;;;;;;;19.41;93.82;100618.06;4981147;28;20037;-69
2021/09/09 07:05:19;;;;;;;10.90;5.60;;;;;;;19.48;93.12;100617.16;4987557;28;20042;-68
2021/09/09 07:07:44;;;;;;;11.90;5.78;;;;;;;19.64;92.74;100611.81;4987302;28;20399;-68
2021/09/09 07:10:10;;;;;;;10.77;5.78;;;;;;;19.65;92.52;100614.13;4990162;28;20392;-69
2021/09/09 07:12:36;;;;;;;12.88;6.15;;;;;;;19.86;91.84;100604.75;4986798;28;20045;-68
2021/09/09 07:15:03;;;;;;;12.23;6.28;;;;;;;19.95;91.22;100609.69;4986021;28;20026;-69
2021/09/09 07:17:29;;;;;;;9.65;5.50;;;;;;;20.16;89.61;100609.28;4985156;28;20513;-69
2021/09/09 07:19:54;;;;;;;9.65;5.53;;;;;;;20.28;89.18;100606.72;4988364;28;20022;-70
2021/09/09 07:22:19;;;;;;;11.10;5.88;;;;;;;20.32;88.79;100614.88;4989096;28;20117;-69
2021/09/09 07:24:45;;;;;;;10.40;5.60;;;;;;;20.43;89.11;100618.16;4989530;28;20050;-69
2021/09/09 07:27:10;;;;;;;9.40;5.60;;;;;;;20.54;89.22;100618.69;4988477;28;20409;-71
2021/09/09 07:29:36;;;;;;;13.27;5.63;;;;;;;20.70;86.58;100618.75;4970312;28;20545;-69
2021/09/09 07:32:02;;;;;;;8.95;5.18;;;;;;;20.86;85.06;100624.25;4968396;28;20522;-69
2021/09/09 07:34:27;;;;;;;9.68;5.05;;;;;;;20.98;85.22;100625.56;4981966;28;20053;-70
2021/09/09 07:36:56;;;;;;;9.15;5.50;;;;;;;21.11;84.26;100623.72;4988170;28;20058;-70
2021/09/09 07:39:22;;;;;;;10.77;5.13;;;;;;;21.27;83.10;100624.47;4987914;28;20121;-69
2021/09/09 07:41:47;;;;;;;9.80;5.22;;;;;;;21.32;82.53;100624.00;4989282;28;20156;-70
2021/09/09 07:44:13;;;;;;;10.15;4.95;;;;;;;21.39;82.12;100626.53;4985896;28;20030;-69
2021/09/09 07:46:38;;;;;;;9.80;4.93;;;;;;;21.61;82.62;100626.00;4988815;28;20045;-69
2021/09/09 07:49:04;;;;;;;12.18;4.75;;;;;;;21.80;81.19;100631.41;4988808;28;20115;-69
2021/09/09 07:51:30;;;;;;;9.68;5.15;;;;;;;21.93;81.03;100624.00;4984083;28;20042;-69
2021/09/09 07:53:56;;;;;;;7.88;4.70;;;;;;;22.08;81.72;100629.91;4987934;28;20034;-70
2021/09/09 07:56:22;;;;;;;8.23;5.10;;;;;;;22.20;81.49;100635.41;4966043;28;20041;-69
2021/09/09 07:58:50;;;;;;;12.95;5.32;;;;;;;22.34;80.06;100626.03;4983075;28;20408;-69
2021/09/09 08:01:20;;;;;;;8.10;4.18;;;;;;;22.45;77.21;100621.00;4983408;28;20072;-69
2021/09/09 08:03:46;;;;;;;7.97;4.68;;;;;;;22.56;76.31;100620.69;4968861;28;20479;-69
2021/09/09 08:06:13;;;;;;;8.18;4.63;;;;;;;22.71;76.23;100616.34;4983569;28;20069;-71
2021/09/09 08:08:39;;;;;;;6.85;4.70;;;;;;;22.83;77.37;100613.63;4963440;28;20053;-71
2021/09/09 08:11:04;;;;;;;8.07;4.47;;;;;;;22.99;76.26;100619.00;4981982;28;20081;-69
2021/09/09 08:13:30;;;;;;;9.05;4.90;;;;;;;23.11;76.71;100612.72;4953713;28;20035;-68
2021/09/09 08:15:55;;;;;;;7.53;4.72;;;;;;;23.11;74.62;100615.47;4987447;28;20495;-69
2021/09/09 08:18:21;;;;;;;6.78;4.15;;;;;;;23.19;74.21;100624.25;4984663;28;20031;-68
2021/09/09 08:20:47;;;;;;;7.47;4.75;;;;;;;23.25;73.15;100623.28;4966250;28;20089;-69
2021/09/09 08:23:12;;;;;;;6.68;4.10;;;;;;;23.39;72.11;100622.06;4957580;28;20078;-69
2021/09/09 08:25:38;;;;;;;7.53;4.55;;;;;;;23.48;70.53;100624.16;4985857;28;20066;-69
2021/09/09 08:28:04;;;;;;;9.63;4.70;;;;;;;23.52;70.24;100625.56;4969666;28;20134;-69
2021/09/09 08:30:29;;;;;;;7.03;4.35;;;;;;;23.66;71.15;100624.31;4954481;28;20046;-72
2021/09/09 08:32:55;;;;;;;7.10;4.13;;;;;;;23.66;69.12;100633.34;4984893;28;20050;-69
2021/09/09 08:35:23;;;;;;;7.15;4.03;;;;;;;23.78;68.55;100631.75;4988959;28;20516;-69
2021/09/09 08:37:49;;;;;;;6.75;4.35;;;;;;;23.95;68.67;100625.66;4979718;28;20057;-70
2021/09/09 08:40:15;;;;;;;11.02;4.60;;;;;;;24.08;68.01;100626.38;4982863;28;20042;-68
2021/09/09 08:42:43;;;;;;;7.63;4.20;;;;;;;24.09;66.89;100618.91;4987122;28;20052;-72
2021/09/09 08:45:10;;;;;;;8.00;4.35;;;;;;;24.34;67.88;100626.25;4984729;28;20454;-70
2021/09/09 08:47:40;;;;;;;7.28;4.03;;;;;;;24.51;66.43;100613.81;4987067;28;20412;-69
2021/09/09 08:50:07;;;;;;;8.15;4.00;;;;;;;24.56;65.33;100613.25;4988440;28;20045;-69
2021/09/09 08:52:32;;;;;;;6.43;4.07;;;;;;;24.68;64.13;100613.13;4968015;28;20034;-70
2021/09/09 08:54:58;;;;;;;5.88;3.90;;;;;;;24.73;65.70;100618.09;4970018;28;20113;-70
2021/09/09 08:57:23;;;;;;;7.28;3.92;;;;;;;24.84;66.08;100623.19;4988019;28;20049;-69
2021/09/09 08:59:49;;;;;;;6.82;4.20;;;;;;;25.00;65.86;100620.19;4969501;28;20556;-70
2021/09/09 09:02:15;;;;;;;8.85;3.70;;;;;;;25.05;63.98;100619.59;4984295;28;20042;-70
2021/09/09 09:04:40;;;;;;;6.53;3.90;;;;;;;25.27;63.67;100622.28;4988333;28;20057;-70
2021/09/09 09:07:08;;;;;;;6.22;3.80;;;;;;;25.54;62.41;100630.63;4984362;28;20491;-69
2021/09/09 09:09:36;;;;;;;6.45;3.63;;;;;;;25.65;59.45;100614.38;4988901;28;20023;-70
2021/09/09 09:12:10;;;;;;;6.35;3.65;;;;;;;25.88;58.65;100613.78;4971971;28;20035;-69
2021/09/09 09:14:36;;;;;;;5.35;3.63;;;;;;;26.05;57.28;100601.22;4988483;28;20149;-69
2021/09/09 09:17:05;;;;;;;6.05;3.42;;;;;;;26.19;56.12;100608.88;4994105;28;20034;-70
2021/09/09 09:19:34;;;;;;;7.03;4.10;;;;;;;26.35;56.80;100600.28;4991280;28;20053;-70
2021/09/09 09:22:13;;;;;;;6.55;3.67;;;;;;;26.43;57.09;100604.25;4970784;28;20030;-72
2021/09/09 09:24:50;;;;;;;5.32;3.25;;;;;;;26.52;55.98;100601.44;4992300;28;20038;-72
2021/09/09 09:27:20;;;;;;;5.57;3.42;;;;;;;26.67;56.48;100598.81;4983749;28;20507;-70
2021/09/09 09:30:08;;;;;;;4.15;3.03;;;;;;;26.69;54.50;100593.56;4988195;28;20038;-72
2021/09/09 09:32:35;;;;;;;6.18;4.15;;;;;;;26.86;54.67;100588.47;4976967;28;20105;-70
2021/09/09 09:35:15;;;;;;;6.47;3.70;;;;;;;26.98;54.42;100595.78;4992590;28;20026;-70
2021/09/09 09:38:02;;;;;;;5.53;3.42;;;;;;;27.28;54.48;100597.44;4989980;28;20036;-70
2021/09/09 09:40:43;;;;;;;6.13;3.50;;;;;;;27.44;53.20;100588.75;4985367;28;20113;-69
2021/09/09 09:43:10;;;;;;;5.53;3.47;;;;;;;27.47;53.46;100587.81;4990828;28;20156;-70
2021/09/09 09:45:46;;;;;;;11.15;3.30;;;;;;;27.67;52.19;100574.91;4970825;28;20039;-68
2021/09/09 09:48:25;;;;;;;7.80;3.60;;;;;;;27.69;51.69;100585.50;4986231;28;20491;-68
2021/09/09 09:50:50;;;;;;;6.78;3.60;;;;;;;27.89;51.04;100591.19;4991495;28;20050;-72
2021/09/09 09:53:17;;;;;;;6.05;3.30;;;;;;;27.97;50.70;100583.28;4990001;28;20101;-69
2021/09/09 09:55:44;;;;;;;5.00;3.47;;;;;;;27.94;50.41;100582.22;4981693;28;20399;-69
2021/09/09 09:58:10;;;;;;;6.15;3.30;;;;;;;28.13;51.20;100583.59;4988283;28;20089;-69
2021/09/09 10:00:36;;;;;;;4.47;2.97;;;;;;;28.14;49.27;100587.91;4971255;28;20412;-69
2021/09/09 10:03:06;;;;;;;6.55;3.50;;;;;;;28.36;49.49;100591.03;4989609;28;20056;-69
2021/09/09 10:05:35;;;;;;;5.95;3.72;;;;;;;28.42;49.44;100591.13;5014999;23;20080;-67
2021/09/09 10:08:02;;;;;;;5.00;3.38;;;;;;;28.62;49.17;100590.47;4985316;28;20031;-67
2021/09/09 10:10:28;;;;;;;7.30;3.40;;;;;;;28.78;50.00;100585.19;4982198;28;20372;-67
2021/09/09 10:12:54;;;;;;;5.45;3.13;;;;;;;28.79;48.63;100572.84;4988296;28;20037;-67
2021/09/09 10:15:21;;;;;;;4.43;3.17;;;;;;;28.77;48.28;100574.56;4981282;28;20026;-67
2021/09/09 10:17:49;;;;;;;4.60;3.13;;;;;;;28.97;47.95;100569.84;4977641;28;20390;-67
2021/09/09 10:20:40;;;;;;;6.35;3.53;;;;;;;29.01;48.77;100572.41;4977900;28;20044;-67
2021/09/09 10:23:10;;;;;;;5.88;3.28;;;;;;;29.05;48.11;100564.66;4977494;28;20039;-67
2021/09/09 10:25:59;;;;;;;5.68;3.35;;;;;;;29.08;46.98;100560.91;4977650;28;20030;-67
2021/09/09 10:28:38;;;;;;;5.00;3.40;;;;;;;29.13;46.43;100563.78;4976902;28;20046;-67
2021/09/09 10:31:05;;;;;;;4.50;3.15;;;;;;;29.08;47.25;100558.13;4991625;28;20041;-67
2021/09/09 10:33:31;;;;;;;5.18;3.30;;;;;;;29.21;46.99;100551.00;4989393;28;20038;-67
2021/09/09 10:35:58;;;;;;;5.45;2.97;;;;;;;29.36;45.93;100557.25;4983505;28;20038;-67
2021/09/09 10:38:27;;;;;;;4.32;3.05;;;;;;;29.50;46.35;100554.91;4983387;28;20035;-67
2021/09/09 10:40:53;;;;;;;4.60;3.22;;;;;;;29.55;45.92;100552.19;4991389;28;20054;-67
2021/09/09 10:43:25;;;;;;;5.90;3.30;;;;;;;29.48;46.59;100543.53;4987137;28;20038;-67
2021/09/09 10:46:05;;;;;;;5.25;3.10;;;;;;;29.72;47.08;100546.84;4989263;28;20356;-67
2021/09/09 10:48:31;;;;;;;4.63;2.90;;;;;;;29.69;47.63;100542.25;4985819;28;20034;-67
2021/09/09 10:51:01;;;;;;;8.60;3.10;;;;;;;29.89;45.91;100544.97;4982684;28;20030;-67
2021/09/09 10:53:43;;;;;;;4.45;3.00;;;;;;;29.84;45.28;100538.13;4990534;28;20045;-67
2021/09/09 10:56:18;;;;;;;5.55;3.38;;;;;;;29.86;44.18;100541.19;4988455;28;20038;-67
2021/09/09 10:58:44;;;;;;;5.63;3.10;;;;;;;29.77;45.49;100544.09;4992137;28;20065;-67
2021/09/09 11:01:11;;;;;;;6.38;3.30;;;;;;;29.77;45.05;100541.34;4980983;28;20034;-67
2021/09/09 11:03:48;;;;;;;5.65;3.30;;;;;;;29.87;44.73;100531.59;4984063;28;20148;-67
2021/09/09 11:06:14;;;;;;;6.00;3.47;;;;;;;29.80;45.72;100525.72;4990212;28;20076;-67
2021/09/09 11:08:42;;;;;;;4.90;3.50;;;;;;;29.89;44.96;100523.53;4987226;28;20420;-67
2021/09/09 11:11:14;;;;;;;5.13;3.30;;;;;;;29.98;45.73;100531.72;4987184;28;20070;-67
2021/09/09 11:13:40;;;;;;;7.63;3.58;;;;;;;30.15;44.69;100529.06;4982595;28;20482;-67
2021/09/09 11:16:26;;;;;;;4.68;3.22;;;;;;;30.14;44.53;100533.09;4974981;28;20034;-67
2021/09/09 11:18:52;;;;;;;5.30;3.33;;;;;;;30.21;45.25;100525.09;4992799;28;20026;-67
2021/09/09 11:21:20;;;;;;;5.97;3.28;;;;;;;30.38;44.11;100525.25;4976932;28;20473;-67